sensor_id;sensor_type;location;lat;lon;timestamp;pressure;altitude;pressure_sealevel;temperature;humidity
32131;BME280;18639;50.716;7.086;2023-04-01T00:01:03;98368.78;;;11.61;95.47
32131;BME280;18639;50.716;7.086;2023-04-01T00:03:29;98365.53;;;11.59;95.55
32131;BME280;18639;50.716;7.086;2023-04-01T00:05:56;98362.53;;;11.64;95.45
32131;BME280;18639;50.716;7.086;2023-04-01T00:08:21;98352.47;;;11.61;95.46
32131;BME280;18639;50.716;7.086;2023-04-01T00:10:47;98347.22;;;11.45;94.97
32131;BME280;18639;50.716;7.086;2023-04-01T00:13:13;98361.72;;;11.63;96.17
32131;BME280;18639;50.716;7.086;2023-04-01T00:15:41;98365.53;;;11.59;96.06
32131;BME280;18639;50.716;7.086;2023-04-01T00:18:06;98353.41;;;11.52;96.23
32131;BME280;18639;50.716;7.086;2023-04-01T00:20:32;98337.69;;;11.45;96.55
32131;BME280;18639;50.716;7.086;2023-04-01T00:22:57;98339.16;;;11.48;96.72
32131;BME280;18639;50.716;7.086;2023-04-01T00:25:23;98346.78;;;11.57;96.60
32131;BME280;18639;50.716;7.086;2023-04-01T00:27:48;98344.81;;;11.51;96.66
32131;BME280;18639;50.716;7.086;2023-04-01T00:30:15;98346.25;;;11.46;97.27
32131;BME280;18639;50.716;7.086;2023-04-01T00:32:41;98342.72;;;11.47;97.66
32131;BME280;18639;50.716;7.086;2023-04-01T00:35:06;98356.94;;;11.51;97.50
32131;BME280;18639;50.716;7.086;2023-04-01T00:37:35;98358.84;;;11.49;97.06
32131;BME280;18639;50.716;7.086;2023-04-01T00:40:02;98347.56;;;11.50;96.79
32131;BME280;18639;50.716;7.086;2023-04-01T00:42:28;98351.78;;;11.51;97.41
32131;BME280;18639;50.716;7.086;2023-04-01T00:44:55;98346.94;;;11.56;96.38
32131;BME280;18639;50.716;7.086;2023-04-01T00:47:21;98360.19;;;11.53;96.27
32131;BME280;18639;50.716;7.086;2023-04-01T00:49:49;98348.84;;;11.46;97.26
32131;BME280;18639;50.716;7.086;2023-04-01T00:52:19;98343.16;;;11.42;96.96
32131;BME280;18639;50.716;7.086;2023-04-01T00:54:50;98348.84;;;11.46;97.04
32131;BME280;18639;50.716;7.086;2023-04-01T00:57:31;98343.66;;;11.46;97.30
32131;BME280;18639;50.716;7.086;2023-04-01T00:59:59;98348.50;;;11.49;96.65
32131;BME280;18639;50.716;7.086;2023-04-01T01:02:25;98349.31;;;11.49;97.09
32131;BME280;18639;50.716;7.086;2023-04-01T01:04:50;98349.50;;;11.48;97.46
32131;BME280;18639;50.716;7.086;2023-04-01T01:12:40;98333.13;;;11.39;97.64
32131;BME280;18639;50.716;7.086;2023-04-01T01:18:09;98342.84;;;11.45;98.66
32131;BME280;18639;50.716;7.086;2023-04-01T01:21:06;98333.00;;;11.49;99.01
32131;BME280;18639;50.716;7.086;2023-04-01T01:26:34;98332.97;;;11.40;98.38
32131;BME280;18639;50.716;7.086;2023-04-01T01:29:34;98338.97;;;11.41;99.09
32131;BME280;18639;50.716;7.086;2023-04-01T01:34:52;98332.31;;;11.38;100.00
32131;BME280;18639;50.716;7.086;2023-04-01T01:37:22;98334.06;;;11.38;100.00
32131;BME280;18639;50.716;7.086;2023-04-01T01:39:55;98334.25;;;11.36;100.00
32131;BME280;18639;50.716;7.086;2023-04-01T01:42:22;98303.13;;;11.20;99.62
32131;BME280;18639;50.716;7.086;2023-04-01T01:44:52;98334.41;;;11.35;99.66
32131;BME280;18639;50.716;7.086;2023-04-01T01:47:19;98312.50;;;11.21;99.66
32131;BME280;18639;50.716;7.086;2023-04-01T01:49:47;98328.56;;;11.33;99.08
32131;BME280;18639;50.716;7.086;2023-04-01T01:52:13;98334.84;;;11.30;98.92
32131;BME280;18639;50.716;7.086;2023-04-01T01:54:49;98322.38;;;11.26;98.99
32131;BME280;18639;50.716;7.086;2023-04-01T01:57:14;98323.34;;;11.25;99.73
32131;BME280;18639;50.716;7.086;2023-04-01T01:59:43;98312.66;;;11.20;98.73
32131;BME280;18639;50.716;7.086;2023-04-01T02:02:11;98338.13;;;11.32;98.47
32131;BME280;18639;50.716;7.086;2023-04-01T02:04:40;98325.31;;;11.31;97.81
32131;BME280;18639;50.716;7.086;2023-04-01T02:07:10;98331.94;;;11.33;97.90
32131;BME280;18639;50.716;7.086;2023-04-01T02:09:37;98305.38;;;11.15;97.42
32131;BME280;18639;50.716;7.086;2023-04-01T02:12:06;98335.00;;;11.29;96.60
32131;BME280;18639;50.716;7.086;2023-04-01T02:19:35;98336.03;;;11.36;96.06
32131;BME280;18639;50.716;7.086;2023-04-01T02:22:04;98321.13;;;11.30;95.90
32131;BME280;18639;50.716;7.086;2023-04-01T02:24:32;98307.34;;;11.21;96.86
32131;BME280;18639;50.716;7.086;2023-04-01T02:26:58;98319.28;;;11.22;98.58
32131;BME280;18639;50.716;7.086;2023-04-01T02:29:24;98321.25;;;11.28;99.61
32131;BME280;18639;50.716;7.086;2023-04-01T02:31:51;98294.13;;;10.98;100.00
32131;BME280;18639;50.716;7.086;2023-04-01T02:34:17;98302.72;;;11.07;100.00
32131;BME280;18639;50.716;7.086;2023-04-01T02:36:43;98330.59;;;11.21;100.00
32131;BME280;18639;50.716;7.086;2023-04-01T02:39:09;98325.38;;;11.13;100.00
32131;BME280;18639;50.716;7.086;2023-04-01T02:41:42;98334.63;;;11.16;100.00
32131;BME280;18639;50.716;7.086;2023-04-01T02:44:08;98329.22;;;11.09;100.00
32131;BME280;18639;50.716;7.086;2023-04-01T02:46:35;98283.47;;;10.76;100.00
32131;BME280;18639;50.716;7.086;2023-04-01T02:49:00;98306.47;;;10.87;100.00
32131;BME280;18639;50.716;7.086;2023-04-01T02:51:26;98318.41;;;11.06;100.00
32131;BME280;18639;50.716;7.086;2023-04-01T02:53:51;98329.88;;;11.11;100.00
32131;BME280;18639;50.716;7.086;2023-04-01T02:56:18;98328.75;;;11.06;100.00
32131;BME280;18639;50.716;7.086;2023-04-01T02:58:44;98332.41;;;11.03;100.00
32131;BME280;18639;50.716;7.086;2023-04-01T03:01:10;98336.91;;;11.01;100.00
32131;BME280;18639;50.716;7.086;2023-04-01T03:03:35;98323.38;;;10.81;100.00
32131;BME280;18639;50.716;7.086;2023-04-01T03:06:05;98324.88;;;10.84;100.00
32131;BME280;18639;50.716;7.086;2023-04-01T03:08:31;98317.19;;;10.74;100.00
32131;BME280;18639;50.716;7.086;2023-04-01T03:10:56;98314.19;;;10.79;100.00
32131;BME280;18639;50.716;7.086;2023-04-01T03:13:21;98323.84;;;10.77;100.00
32131;BME280;18639;50.716;7.086;2023-04-01T03:15:47;98327.22;;;10.77;100.00
32131;BME280;18639;50.716;7.086;2023-04-01T03:18:12;98315.06;;;10.70;100.00
32131;BME280;18639;50.716;7.086;2023-04-01T03:20:38;98325.09;;;10.73;100.00
32131;BME280;18639;50.716;7.086;2023-04-01T03:23:03;98320.22;;;10.70;100.00
32131;BME280;18639;50.716;7.086;2023-04-01T03:25:28;98294.25;;;10.53;100.00
32131;BME280;18639;50.716;7.086;2023-04-01T03:27:55;98330.56;;;10.70;100.00
32131;BME280;18639;50.716;7.086;2023-04-01T03:30:21;98318.41;;;10.62;100.00
32131;BME280;18639;50.716;7.086;2023-04-01T03:32:46;98326.16;;;10.62;100.00
32131;BME280;18639;50.716;7.086;2023-04-01T03:35:11;98315.38;;;10.67;100.00
32131;BME280;18639;50.716;7.086;2023-04-01T03:37:37;98315.00;;;10.62;100.00
32131;BME280;18639;50.716;7.086;2023-04-01T03:40:03;98316.63;;;10.63;100.00
32131;BME280;18639;50.716;7.086;2023-04-01T03:42:29;98315.50;;;10.65;100.00
32131;BME280;18639;50.716;7.086;2023-04-01T03:44:56;98266.25;;;10.41;100.00
32131;BME280;18639;50.716;7.086;2023-04-01T03:47:21;98319.63;;;10.76;100.00
32131;BME280;18639;50.716;7.086;2023-04-01T03:49:46;98299.19;;;10.65;100.00
32131;BME280;18639;50.716;7.086;2023-04-01T03:52:12;98310.34;;;10.65;100.00
32131;BME280;18639;50.716;7.086;2023-04-01T03:54:37;98305.53;;;10.70;100.00
32131;BME280;18639;50.716;7.086;2023-04-01T03:57:03;98306.66;;;10.68;100.00
32131;BME280;18639;50.716;7.086;2023-04-01T03:59:28;98301.19;;;10.71;100.00
32131;BME280;18639;50.716;7.086;2023-04-01T04:01:53;98263.69;;;10.41;100.00
32131;BME280;18639;50.716;7.086;2023-04-01T04:04:19;98323.25;;;10.83;100.00
32131;BME280;18639;50.716;7.086;2023-04-01T04:06:45;98273.19;;;10.40;100.00
32131;BME280;18639;50.716;7.086;2023-04-01T04:09:10;98323.38;;;10.81;100.00
32131;BME280;18639;50.716;7.086;2023-04-01T04:11:35;98277.81;;;10.54;100.00
32131;BME280;18639;50.716;7.086;2023-04-01T04:14:00;98336.81;;;10.85;100.00
32131;BME280;18639;50.716;7.086;2023-04-01T04:16:27;98317.41;;;10.81;100.00
32131;BME280;18639;50.716;7.086;2023-04-01T04:18:52;98329.88;;;10.85;100.00
32131;BME280;18639;50.716;7.086;2023-04-01T04:21:18;98323.88;;;10.85;100.00
32131;BME280;18639;50.716;7.086;2023-04-01T04:23:43;98334.53;;;10.82;100.00
32131;BME280;18639;50.716;7.086;2023-04-01T04:26:11;98328.03;;;10.78;100.00
32131;BME280;18639;50.716;7.086;2023-04-01T04:28:36;98324.66;;;10.77;100.00
32131;BME280;18639;50.716;7.086;2023-04-01T04:31:02;98331.50;;;10.86;100.00
32131;BME280;18639;50.716;7.086;2023-04-01T04:33:29;98331.09;;;10.73;100.00
32131;BME280;18639;50.716;7.086;2023-04-01T04:35:56;98333.94;;;10.88;100.00
32131;BME280;18639;50.716;7.086;2023-04-01T04:38:21;98301.41;;;10.60;100.00
32131;BME280;18639;50.716;7.086;2023-04-01T04:40:47;98307.47;;;10.68;100.00
32131;BME280;18639;50.716;7.086;2023-04-01T04:43:14;98323.88;;;10.85;100.00
32131;BME280;18639;50.716;7.086;2023-04-01T04:45:40;98330.53;;;10.87;100.00
32131;BME280;18639;50.716;7.086;2023-04-01T04:48:07;98339.16;;;10.96;100.00
32131;BME280;18639;50.716;7.086;2023-04-01T04:50:33;98338.06;;;10.81;100.00
32131;BME280;18639;50.716;7.086;2023-04-01T04:52:58;98337.47;;;10.87;100.00
32131;BME280;18639;50.716;7.086;2023-04-01T04:55:24;98334.66;;;10.80;100.00
32131;BME280;18639;50.716;7.086;2023-04-01T04:57:49;98335.47;;;10.81;100.00
32131;BME280;18639;50.716;7.086;2023-04-01T05:00:15;98340.00;;;10.79;100.00
32131;BME280;18639;50.716;7.086;2023-04-01T05:02:40;98346.94;;;10.78;100.00
32131;BME280;18639;50.716;7.086;2023-04-01T05:05:05;98349.81;;;10.75;100.00
32131;BME280;18639;50.716;7.086;2023-04-01T05:07:31;98346.34;;;10.67;100.00
32131;BME280;18639;50.716;7.086;2023-04-01T05:09:57;98347.63;;;10.63;100.00
32131;BME280;18639;50.716;7.086;2023-04-01T05:12:22;98347.91;;;10.60;100.00
32131;BME280;18639;50.716;7.086;2023-04-01T05:14:48;98355.50;;;10.61;100.00
32131;BME280;18639;50.716;7.086;2023-04-01T05:17:13;98353.75;;;10.62;100.00
32131;BME280;18639;50.716;7.086;2023-04-01T05:19:39;98279.50;;;10.10;100.00
32131;BME280;18639;50.716;7.086;2023-04-01T05:22:05;98304.03;;;10.24;100.00
32131;BME280;18639;50.716;7.086;2023-04-01T05:24:31;98332.84;;;10.37;100.00
32131;BME280;18639;50.716;7.086;2023-04-01T05:26:56;98359.28;;;10.49;100.00
32131;BME280;18639;50.716;7.086;2023-04-01T05:29:23;98307.59;;;10.13;100.00
32131;BME280;18639;50.716;7.086;2023-04-01T05:31:48;98353.59;;;10.45;100.00
32131;BME280;18639;50.716;7.086;2023-04-01T05:34:13;98336.81;;;10.32;100.00
32131;BME280;18639;50.716;7.086;2023-04-01T05:36:38;98338.75;;;10.30;100.00
32131;BME280;18639;50.716;7.086;2023-04-01T05:39:04;98357.06;;;10.36;100.00
32131;BME280;18639;50.716;7.086;2023-04-01T05:41:29;98366.13;;;10.40;100.00
32131;BME280;18639;50.716;7.086;2023-04-01T05:43:55;98363.69;;;10.39;100.00
32131;BME280;18639;50.716;7.086;2023-04-01T05:46:20;98366.13;;;10.40;100.00
32131;BME280;18639;50.716;7.086;2023-04-01T05:48:45;98368.72;;;10.40;100.00
32131;BME280;18639;50.716;7.086;2023-04-01T05:51:13;98370.50;;;10.40;100.00
32131;BME280;18639;50.716;7.086;2023-04-01T05:53:39;98373.72;;;10.42;100.00
32131;BME280;18639;50.716;7.086;2023-04-01T05:56:04;98365.47;;;10.38;100.00
32131;BME280;18639;50.716;7.086;2023-04-01T05:58:30;98373.13;;;10.48;100.00
32131;BME280;18639;50.716;7.086;2023-04-01T06:01:07;98379.94;;;10.49;100.00
32131;BME280;18639;50.716;7.086;2023-04-01T06:03:33;98378.16;;;10.49;100.00
32131;BME280;18639;50.716;7.086;2023-04-01T06:05:58;98370.91;;;10.53;100.00
32131;BME280;18639;50.716;7.086;2023-04-01T06:08:24;98373.72;;;10.60;100.00
32131;BME280;18639;50.716;7.086;2023-04-01T06:16:58;98390.28;;;10.67;100.00
32131;BME280;18639;50.716;7.086;2023-04-01T06:27:48;98393.13;;;10.64;100.00
32131;BME280;18639;50.716;7.086;2023-04-01T06:30:42;98398.59;;;10.61;100.00
32131;BME280;18639;50.716;7.086;2023-04-01T06:39:08;98407.09;;;10.71;100.00
32131;BME280;18639;50.716;7.086;2023-04-01T06:44:41;98412.72;;;10.84;100.00
32131;BME280;18639;50.716;7.086;2023-04-01T06:49:59;98413.72;;;10.91;100.00
32131;BME280;18639;50.716;7.086;2023-04-01T06:58:01;98397.44;;;10.73;100.00
32131;BME280;18639;50.716;7.086;2023-04-01T07:00:35;98429.09;;;10.92;100.00
32131;BME280;18639;50.716;7.086;2023-04-01T07:03:22;98431.53;;;10.94;100.00
32131;BME280;18639;50.716;7.086;2023-04-01T07:05:51;98429.91;;;10.93;100.00
32131;BME280;18639;50.716;7.086;2023-04-01T07:08:25;98424.66;;;10.85;100.00
32131;BME280;18639;50.716;7.086;2023-04-01T07:11:10;98422.75;;;10.87;100.00
32131;BME280;18639;50.716;7.086;2023-04-01T07:13:41;98420.16;;;10.87;100.00
32131;BME280;18639;50.716;7.086;2023-04-01T07:16:16;98432.53;;;11.01;100.00
32131;BME280;18639;50.716;7.086;2023-04-01T07:18:47;98432.75;;;11.08;100.00
32131;BME280;18639;50.716;7.086;2023-04-01T07:21:41;98427.38;;;11.01;100.00
32131;BME280;18639;50.716;7.086;2023-04-01T07:24:16;98441.41;;;11.16;100.00
32131;BME280;18639;50.716;7.086;2023-04-01T07:26:43;98427.50;;;11.17;100.00
32131;BME280;18639;50.716;7.086;2023-04-01T07:29:11;98447.00;;;11.29;100.00
32131;BME280;18639;50.716;7.086;2023-04-01T07:31:54;98414.81;;;11.06;100.00
32131;BME280;18639;50.716;7.086;2023-04-01T07:34:26;98437.69;;;11.36;100.00
32131;BME280;18639;50.716;7.086;2023-04-01T07:37:10;98424.41;;;11.31;100.00
32131;BME280;18639;50.716;7.086;2023-04-01T07:47:41;98435.81;;;11.47;100.00
32131;BME280;18639;50.716;7.086;2023-04-01T07:50:34;98456.09;;;11.59;100.00
32131;BME280;18639;50.716;7.086;2023-04-01T07:53:11;98447.19;;;11.54;100.00
32131;BME280;18639;50.716;7.086;2023-04-01T07:55:46;98455.03;;;11.44;100.00
32131;BME280;18639;50.716;7.086;2023-04-01T08:01:09;98458.50;;;11.53;100.00
32131;BME280;18639;50.716;7.086;2023-04-01T08:06:45;98467.72;;;11.55;100.00
32131;BME280;18639;50.716;7.086;2023-04-01T08:15:09;98476.59;;;11.53;100.00
32131;BME280;18639;50.716;7.086;2023-04-01T08:17:59;98480.84;;;11.62;100.00
32131;BME280;18639;50.716;7.086;2023-04-01T08:20:37;98480.19;;;11.60;100.00
32131;BME280;18639;50.716;7.086;2023-04-01T08:23:11;98482.84;;;11.68;100.00
32131;BME280;18639;50.716;7.086;2023-04-01T08:25:46;98484.25;;;11.62;100.00
32131;BME280;18639;50.716;7.086;2023-04-01T08:28:17;98484.97;;;11.72;100.00
32131;BME280;18639;50.716;7.086;2023-04-01T08:31:00;98491.41;;;11.68;100.00
32131;BME280;18639;50.716;7.086;2023-04-01T08:33:31;98507.72;;;11.87;100.00
32131;BME280;18639;50.716;7.086;2023-04-01T08:36:17;98498.78;;;11.81;100.00
32131;BME280;18639;50.716;7.086;2023-04-01T08:38:51;98509.13;;;11.81;100.00
32131;BME280;18639;50.716;7.086;2023-04-01T08:50:35;98503.59;;;11.76;100.00
32131;BME280;18639;50.716;7.086;2023-04-01T08:55:51;98487.66;;;11.63;100.00
32131;BME280;18639;50.716;7.086;2023-04-01T09:01:16;98528.66;;;11.75;100.00
32131;BME280;18639;50.716;7.086;2023-04-01T09:06:40;98530.72;;;11.72;100.00
32131;BME280;18639;50.716;7.086;2023-04-01T09:12:18;98541.31;;;11.61;100.00
32131;BME280;18639;50.716;7.086;2023-04-01T09:18:06;98547.81;;;11.65;100.00
32131;BME280;18639;50.716;7.086;2023-04-01T09:20:46;98542.34;;;11.50;100.00
32131;BME280;18639;50.716;7.086;2023-04-01T09:23:36;98555.78;;;11.71;100.00
32131;BME280;18639;50.716;7.086;2023-04-01T09:26:29;98553.09;;;11.73;100.00
32131;BME280;18639;50.716;7.086;2023-04-01T09:29:35;98562.47;;;11.74;100.00
32131;BME280;18639;50.716;7.086;2023-04-01T09:35:20;98560.84;;;11.55;100.00
32131;BME280;18639;50.716;7.086;2023-04-01T09:38:04;98567.41;;;11.50;100.00
32131;BME280;18639;50.716;7.086;2023-04-01T09:40:53;98572.06;;;11.46;100.00
32131;BME280;18639;50.716;7.086;2023-04-01T09:43:25;98568.38;;;11.49;100.00
32131;BME280;18639;50.716;7.086;2023-04-01T09:51:57;98580.66;;;11.82;100.00
32131;BME280;18639;50.716;7.086;2023-04-01T10:05:29;98597.19;;;12.07;100.00
32131;BME280;18639;50.716;7.086;2023-04-01T10:11:23;98592.50;;;12.10;100.00
32131;BME280;18639;50.716;7.086;2023-04-01T10:14:25;98602.75;;;12.20;100.00
32131;BME280;18639;50.716;7.086;2023-04-01T10:23:02;98617.22;;;12.31;100.00
32131;BME280;18639;50.716;7.086;2023-04-01T10:26:19;98617.19;;;12.22;100.00
32131;BME280;18639;50.716;7.086;2023-04-01T10:34:58;98617.38;;;12.29;100.00
32131;BME280;18639;50.716;7.086;2023-04-01T10:49:10;98627.47;;;12.66;100.00
32131;BME280;18639;50.716;7.086;2023-04-01T11:16:47;98641.56;;;12.63;100.00
32131;BME280;18639;50.716;7.086;2023-04-01T11:33:04;98646.50;;;12.83;100.00
32131;BME280;18639;50.716;7.086;2023-04-01T11:35:56;98660.97;;;12.59;100.00
32131;BME280;18639;50.716;7.086;2023-04-01T11:44:16;98673.66;;;12.45;100.00
32131;BME280;18639;50.716;7.086;2023-04-01T11:52:23;98683.22;;;12.44;100.00
32131;BME280;18639;50.716;7.086;2023-04-01T11:57:52;98675.00;;;12.23;100.00
32131;BME280;18639;50.716;7.086;2023-04-01T12:00:30;98686.44;;;12.20;100.00
32131;BME280;18639;50.716;7.086;2023-04-01T12:06:05;98691.34;;;12.06;100.00
32131;BME280;18639;50.716;7.086;2023-04-01T12:08:49;98692.66;;;12.10;100.00
32131;BME280;18639;50.716;7.086;2023-04-01T12:14:07;98696.00;;;12.20;100.00
32131;BME280;18639;50.716;7.086;2023-04-01T12:20:39;98708.56;;;12.33;100.00
32131;BME280;18639;50.716;7.086;2023-04-01T12:31:18;98715.84;;;12.55;100.00
32131;BME280;18639;50.716;7.086;2023-04-01T12:34:05;98721.69;;;12.57;100.00
32131;BME280;18639;50.716;7.086;2023-04-01T12:47:48;98737.34;;;12.73;100.00
32131;BME280;18639;50.716;7.086;2023-04-01T12:50:25;98733.63;;;12.50;100.00
32131;BME280;18639;50.716;7.086;2023-04-01T12:55:42;98744.34;;;12.55;100.00
32131;BME280;18639;50.716;7.086;2023-04-01T12:58:24;98735.63;;;12.38;100.00
32131;BME280;18639;50.716;7.086;2023-04-01T13:15:10;98760.50;;;12.31;100.00
32131;BME280;18639;50.716;7.086;2023-04-01T13:18:06;98759.81;;;12.29;100.00
32131;BME280;18639;50.716;7.086;2023-04-01T13:20:44;98759.03;;;12.29;100.00
32131;BME280;18639;50.716;7.086;2023-04-01T13:26:05;98764.88;;;12.31;100.00
32131;BME280;18639;50.716;7.086;2023-04-01T13:29:10;98754.44;;;12.22;100.00
32131;BME280;18639;50.716;7.086;2023-04-01T13:31:50;98760.38;;;12.33;100.00
32131;BME280;18639;50.716;7.086;2023-04-01T13:37:10;98768.88;;;12.43;100.00
32131;BME280;18639;50.716;7.086;2023-04-01T13:40:14;98775.00;;;12.59;100.00
32131;BME280;18639;50.716;7.086;2023-04-01T13:45:57;98771.66;;;12.93;100.00
32131;BME280;18639;50.716;7.086;2023-04-01T14:08:17;98770.31;;;12.63;100.00
32131;BME280;18639;50.716;7.086;2023-04-01T14:14:22;98783.84;;;13.00;100.00
32131;BME280;18639;50.716;7.086;2023-04-01T14:20:33;98792.81;;;13.32;100.00
32131;BME280;18639;50.716;7.086;2023-04-01T14:25:59;98794.19;;;13.44;100.00
32131;BME280;18639;50.716;7.086;2023-04-01T14:28:47;98804.09;;;13.48;100.00
32131;BME280;18639;50.716;7.086;2023-04-01T14:34:21;98789.97;;;13.43;100.00
32131;BME280;18639;50.716;7.086;2023-04-01T14:36:56;98795.34;;;13.49;100.00
32131;BME280;18639;50.716;7.086;2023-04-01T14:39:43;98805.41;;;13.53;100.00
32131;BME280;18639;50.716;7.086;2023-04-01T14:42:23;98803.28;;;13.48;100.00
32131;BME280;18639;50.716;7.086;2023-04-01T14:47:50;98796.03;;;13.26;100.00
32131;BME280;18639;50.716;7.086;2023-04-01T14:50:25;98820.53;;;13.31;100.00
32131;BME280;18639;50.716;7.086;2023-04-01T14:52:58;98821.81;;;13.27;100.00
32131;BME280;18639;50.716;7.086;2023-04-01T14:55:32;98829.13;;;13.32;100.00
32131;BME280;18639;50.716;7.086;2023-04-01T14:58:07;98836.09;;;13.31;100.00
32131;BME280;18639;50.716;7.086;2023-04-01T15:03:25;98837.50;;;13.18;100.00
32131;BME280;18639;50.716;7.086;2023-04-01T15:05:56;98827.59;;;12.95;100.00
32131;BME280;18639;50.716;7.086;2023-04-01T15:14:23;98832.59;;;12.71;100.00
32131;BME280;18639;50.716;7.086;2023-04-01T15:22:29;98849.00;;;12.80;100.00
32131;BME280;18639;50.716;7.086;2023-04-01T15:33:50;98861.53;;;12.66;100.00
32131;BME280;18639;50.716;7.086;2023-04-01T15:36:36;98871.75;;;12.68;100.00
32131;BME280;18639;50.716;7.086;2023-04-01T15:39:12;98873.03;;;12.64;100.00
32131;BME280;18639;50.716;7.086;2023-04-01T15:42:13;98879.84;;;12.65;100.00
32131;BME280;18639;50.716;7.086;2023-04-01T15:47:58;98885.50;;;12.33;100.00
32131;BME280;18639;50.716;7.086;2023-04-01T15:50:49;98900.00;;;12.26;100.00
32131;BME280;18639;50.716;7.086;2023-04-01T15:53:37;98897.09;;;12.11;100.00
32131;BME280;18639;50.716;7.086;2023-04-01T15:56:20;98877.53;;;11.99;100.00
32131;BME280;18639;50.716;7.086;2023-04-01T15:59:22;98909.69;;;12.24;100.00
32131;BME280;18639;50.716;7.086;2023-04-01T16:02:18;98909.72;;;12.14;100.00
32131;BME280;18639;50.716;7.086;2023-04-01T16:15:51;98925.94;;;12.16;100.00
32131;BME280;18639;50.716;7.086;2023-04-01T16:21:19;98925.84;;;12.08;100.00
32131;BME280;18639;50.716;7.086;2023-04-01T16:23:58;98926.63;;;11.91;100.00
32131;BME280;18639;50.716;7.086;2023-04-01T16:26:37;98931.94;;;11.90;100.00
32131;BME280;18639;50.716;7.086;2023-04-01T16:29:26;98939.88;;;11.78;100.00
32131;BME280;18639;50.716;7.086;2023-04-01T16:32:14;98941.78;;;11.76;100.00
32131;BME280;18639;50.716;7.086;2023-04-01T16:34:47;98939.56;;;11.72;100.00
32131;BME280;18639;50.716;7.086;2023-04-01T16:37:29;98938.53;;;11.74;100.00
32131;BME280;18639;50.716;7.086;2023-04-01T16:40:10;98938.91;;;11.79;100.00
32131;BME280;18639;50.716;7.086;2023-04-01T16:42:50;98939.56;;;11.72;100.00
32131;BME280;18639;50.716;7.086;2023-04-01T16:47:50;98963.03;;;11.80;100.00
32131;BME280;18639;50.716;7.086;2023-04-01T16:50:19;98963.41;;;11.75;100.00
32131;BME280;18639;50.716;7.086;2023-04-01T16:52:57;98969.59;;;11.74;100.00
32131;BME280;18639;50.716;7.086;2023-04-01T16:55:35;98969.41;;;11.76;100.00
32131;BME280;18639;50.716;7.086;2023-04-01T16:58:01;98965.75;;;11.69;100.00
32131;BME280;18639;50.716;7.086;2023-04-01T17:00:37;98980.06;;;11.73;100.00
32131;BME280;18639;50.716;7.086;2023-04-01T17:03:11;98978.00;;;11.67;100.00
32131;BME280;18639;50.716;7.086;2023-04-01T17:05:55;98974.19;;;11.61;100.00
32131;BME280;18639;50.716;7.086;2023-04-01T17:11:19;98994.19;;;11.59;100.00
32131;BME280;18639;50.716;7.086;2023-04-01T17:13:58;98986.19;;;11.53;100.00
32131;BME280;18639;50.716;7.086;2023-04-01T17:16:44;98994.91;;;11.52;100.00
32131;BME280;18639;50.716;7.086;2023-04-01T17:24:57;99017.66;;;11.38;100.00
32131;BME280;18639;50.716;7.086;2023-04-01T17:38:12;99021.47;;;11.15;100.00
32131;BME280;18639;50.716;7.086;2023-04-01T17:40:49;99036.16;;;11.24;100.00
32131;BME280;18639;50.716;7.086;2023-04-01T17:45:57;99043.34;;;11.11;100.00
32131;BME280;18639;50.716;7.086;2023-04-01T17:48:49;99043.63;;;11.08;100.00
32131;BME280;18639;50.716;7.086;2023-04-01T17:51:33;99046.50;;;11.05;100.00
32131;BME280;18639;50.716;7.086;2023-04-01T18:02:00;99069.19;;;11.02;100.00
32131;BME280;18639;50.716;7.086;2023-04-01T18:10:25;99076.00;;;10.93;100.00
32131;BME280;18639;50.716;7.086;2023-04-01T18:18:17;99051.16;;;10.62;100.00
32131;BME280;18639;50.716;7.086;2023-04-01T18:21:10;99092.03;;;10.87;100.00
32131;BME280;18639;50.716;7.086;2023-04-01T18:23:46;99096.75;;;10.82;100.00
32131;BME280;18639;50.716;7.086;2023-04-01T18:28:57;99103.16;;;10.78;100.00
32131;BME280;18639;50.716;7.086;2023-04-01T18:31:31;99109.97;;;10.79;100.00
32131;BME280;18639;50.716;7.086;2023-04-01T18:34:28;99119.72;;;10.75;100.00
32131;BME280;18639;50.716;7.086;2023-04-01T18:37:00;99127.34;;;10.77;100.00
32131;BME280;18639;50.716;7.086;2023-04-01T18:39:36;99124.06;;;10.75;100.00
32131;BME280;18639;50.716;7.086;2023-04-01T18:42:23;99124.75;;;10.77;100.00
32131;BME280;18639;50.716;7.086;2023-04-01T18:45:09;99137.69;;;10.77;100.00
32131;BME280;18639;50.716;7.086;2023-04-01T18:47:55;99132.53;;;10.77;100.00
32131;BME280;18639;50.716;7.086;2023-04-01T18:50:43;99144.50;;;10.78;100.00
32131;BME280;18639;50.716;7.086;2023-04-01T18:56:28;99155.34;;;10.72;100.00
32131;BME280;18639;50.716;7.086;2023-04-01T19:05:08;99159.13;;;10.68;100.00
32131;BME280;18639;50.716;7.086;2023-04-01T19:15:49;99171.78;;;10.71;100.00
32131;BME280;18639;50.716;7.086;2023-04-01T19:21:26;99158.28;;;10.58;100.00
32131;BME280;18639;50.716;7.086;2023-04-01T19:27:03;99179.88;;;10.57;100.00
32131;BME280;18639;50.716;7.086;2023-04-01T19:29:46;99185.47;;;10.62;100.00
32131;BME280;18639;50.716;7.086;2023-04-01T19:41:25;99193.47;;;10.59;100.00
32131;BME280;18639;50.716;7.086;2023-04-01T19:46:44;99191.84;;;10.58;100.00
32131;BME280;18639;50.716;7.086;2023-04-01T19:57:38;99216.59;;;10.60;100.00
32131;BME280;18639;50.716;7.086;2023-04-01T20:08:25;99216.78;;;10.47;100.00
32131;BME280;18639;50.716;7.086;2023-04-01T20:11:04;99205.34;;;10.40;100.00
32131;BME280;18639;50.716;7.086;2023-04-01T20:13:54;99235.69;;;10.48;100.00
32131;BME280;18639;50.716;7.086;2023-04-01T20:16:21;99229.41;;;10.41;100.00
32131;BME280;18639;50.716;7.086;2023-04-01T20:18:55;99230.06;;;10.43;100.00
32131;BME280;18639;50.716;7.086;2023-04-01T20:21:31;99242.16;;;10.42;100.00
32131;BME280;18639;50.716;7.086;2023-04-01T20:24:17;99248.97;;;10.43;100.00
32131;BME280;18639;50.716;7.086;2023-04-01T20:26:50;99249.69;;;10.45;100.00